createdAt,value
2022-08-09T00:00:12.100Z,0.00
2022-08-09T00:01:10.693Z,0.00
2022-08-09T00:02:09.018Z,0.00
2022-08-09T00:04:00.621Z,0.00
2022-08-09T00:04:15.340Z,0.00
2022-08-09T00:06:18.917Z,0.00
2022-08-09T00:06:18.957Z,0.00
2022-08-09T00:07:10.791Z,0.00
2022-08-09T00:08:10.085Z,0.00
2022-08-09T00:09:08.698Z,0.00
2022-08-09T00:10:08.837Z,0.00
2022-08-09T00:11:24.816Z,0.00
2022-08-09T00:12:15.422Z,0.00
2022-08-09T00:13:17.512Z,0.00
2022-08-09T00:14:10.375Z,0.00
2022-08-09T00:15:14.570Z,0.00
2022-08-09T00:16:09.606Z,0.00
2022-08-09T00:17:09.725Z,0.00
2022-08-09T00:18:12.499Z,0.00
2022-08-09T00:19:10.388Z,0.00
2022-08-09T00:20:12.174Z,0.00
2022-08-09T00:21:10.215Z,0.00
2022-08-09T00:22:10.345Z,0.00
2022-08-09T00:23:57.632Z,0.00
2022-08-09T00:24:11.705Z,0.00
2022-08-09T00:25:12.821Z,0.00
2022-08-09T00:26:11.356Z,0.00
2022-08-09T00:27:10.988Z,0.00
2022-08-09T00:28:11.126Z,0.00
2022-08-09T00:29:12.592Z,0.00
2022-08-09T00:30:23.709Z,0.00
2022-08-09T00:31:57.622Z,0.00
2022-08-09T00:32:12.847Z,0.00
2022-08-09T00:33:11.753Z,0.00
2022-08-09T00:34:12.074Z,0.00
2022-08-09T00:35:12.012Z,0.00
2022-08-09T00:36:12.164Z,0.00
2022-08-09T00:37:12.309Z,0.00
2022-08-09T00:38:12.412Z,0.00
2022-08-09T00:40:01.971Z,0.00
2022-08-09T00:40:17.260Z,0.00
2022-08-09T00:44:08.233Z,0.00
2022-08-09T00:44:14.505Z,0.00
2022-08-09T00:44:14.998Z,0.00
2022-08-09T00:44:27.508Z,0.00
2022-08-09T00:45:15.775Z,0.00
2022-08-09T00:46:14.521Z,0.00
2022-08-09T00:47:15.366Z,0.00
2022-08-09T00:48:15.453Z,0.00
2022-08-09T00:49:14.760Z,0.00
2022-08-09T00:50:14.492Z,0.00
2022-08-09T00:51:14.002Z,0.00
2022-08-09T00:52:15.996Z,0.00
2022-08-09T00:53:14.729Z,0.00
2022-08-09T00:54:14.328Z,0.00
2022-08-09T00:55:32.887Z,0.00
2022-08-09T00:56:15.612Z,0.00
2022-08-09T00:57:24.816Z,0.00
2022-08-09T00:58:25.421Z,0.00
2022-08-09T00:59:20.211Z,0.00
2022-08-09T01:00:22.011Z,0.00
2022-08-09T01:01:16.434Z,0.00
2022-08-09T01:02:15.318Z,0.00
2022-08-09T01:03:15.539Z,0.00
2022-08-09T01:04:15.636Z,0.00
2022-08-09T01:05:21.982Z,0.00
2022-08-09T01:06:18.381Z,0.00
2022-08-09T01:07:15.984Z,0.00
2022-08-09T01:08:16.187Z,0.00
2022-08-09T01:09:16.377Z,0.00
2022-08-09T01:10:16.505Z,0.00
2022-08-09T01:11:16.515Z,0.00
2022-08-09T01:12:16.599Z,0.00
2022-08-09T01:13:17.022Z,0.00
2022-08-09T01:14:16.956Z,0.00
2022-08-09T01:15:17.653Z,0.00
2022-08-09T01:16:17.126Z,0.00
2022-08-09T01:17:17.911Z,0.00
2022-08-09T01:18:17.366Z,0.00
2022-08-09T01:19:40.233Z,0.00
2022-08-09T01:20:18.608Z,0.00
2022-08-09T01:21:17.725Z,0.00
2022-08-09T01:22:17.975Z,0.00
2022-08-09T01:24:02.324Z,0.00
2022-08-09T01:24:19.122Z,0.00
2022-08-09T01:25:19.041Z,0.00
2022-08-09T01:26:18.387Z,0.00
2022-08-09T01:27:18.653Z,0.00
2022-08-09T01:28:18.584Z,0.00
2022-08-09T01:29:18.733Z,0.00
2022-08-09T01:30:35.408Z,0.00
2022-08-09T01:32:29.101Z,0.00
2022-08-09T01:32:30.994Z,0.00
2022-08-09T01:33:20.219Z,0.00
2022-08-09T01:34:19.342Z,0.00
2022-08-09T01:35:38.047Z,0.00
2022-08-09T01:36:20.562Z,0.00
2022-08-09T01:37:42.818Z,0.00
2022-08-09T01:38:20.851Z,0.00
2022-08-09T01:39:19.970Z,0.00
2022-08-09T01:40:23.338Z,0.00
2022-08-09T01:41:25.991Z,0.00
2022-08-09T01:42:21.253Z,0.00
2022-08-09T01:43:20.391Z,0.00
2022-08-09T01:44:20.511Z,0.00
2022-08-09T01:45:20.650Z,0.00
2022-08-09T01:46:25.068Z,0.00
2022-08-09T01:47:21.909Z,0.00
2022-08-09T01:48:29.502Z,0.00
2022-08-09T01:49:24.333Z,0.00
2022-08-09T01:50:21.289Z,0.00
2022-08-09T01:51:23.003Z,0.00
2022-08-09T01:52:21.500Z,0.00
2022-08-09T01:53:21.679Z,0.00
2022-08-09T01:54:21.728Z,0.00
2022-08-09T01:55:21.877Z,0.00
2022-08-09T01:56:22.052Z,0.00
2022-08-09T01:57:22.077Z,0.00
2022-08-09T01:58:23.938Z,0.00
2022-08-09T01:59:23.029Z,0.00
2022-08-09T02:00:35.501Z,0.00
2022-08-09T02:01:30.443Z,0.00
2022-08-09T02:02:23.773Z,0.00
2022-08-09T02:03:24.015Z,0.00
2022-08-09T02:04:22.945Z,0.00
2022-08-09T02:05:38.170Z,0.00
2022-08-09T02:06:24.193Z,0.00
2022-08-09T02:08:38.531Z,0.00
2022-08-09T02:08:41.186Z,0.00
2022-08-09T02:09:24.557Z,0.00
2022-08-09T02:10:29.919Z,0.00
2022-08-09T02:11:24.762Z,0.00
2022-08-09T02:12:24.895Z,0.00
2022-08-09T02:13:26.076Z,0.00
2022-08-09T02:14:26.642Z,0.00
2022-08-09T02:15:24.434Z,0.00
2022-08-09T02:16:33.803Z,0.00
2022-08-09T02:18:00.625Z,0.00
2022-08-09T02:18:25.605Z,0.00
2022-08-09T02:19:24.729Z,0.00
2022-08-09T02:20:32.502Z,0.00
2022-08-09T02:21:25.973Z,0.00
2022-08-09T02:22:27.387Z,0.00
2022-08-09T02:23:26.202Z,0.00
2022-08-09T02:24:26.879Z,0.00
2022-08-09T02:25:25.593Z,0.00
2022-08-09T02:26:27.319Z,0.00
2022-08-09T02:27:42.997Z,0.00
2022-08-09T02:28:26.821Z,0.00
2022-08-09T02:29:25.981Z,0.00
2022-08-09T02:30:26.501Z,0.00
2022-08-09T02:31:26.201Z,0.00
2022-08-09T02:32:26.488Z,0.00
2022-08-09T02:33:37.998Z,0.00
2022-08-09T02:34:41.719Z,0.00
2022-08-09T02:36:01.604Z,0.00
2022-08-09T02:36:27.839Z,0.00
2022-08-09T02:37:31.610Z,0.00
2022-08-09T02:38:28.877Z,0.00
2022-08-09T02:39:33.372Z,0.00
2022-08-09T02:40:30.446Z,0.00
2022-08-09T02:41:27.481Z,0.00
2022-08-09T02:42:27.677Z,0.00
2022-08-09T02:43:28.697Z,0.00
2022-08-09T02:44:30.408Z,0.00
2022-08-09T02:45:28.816Z,0.00
2022-08-09T02:46:28.491Z,0.00
2022-08-09T02:47:28.178Z,0.00
2022-08-09T02:48:31.020Z,0.00
2022-08-09T02:49:38.932Z,0.00
2022-08-09T02:50:29.569Z,0.00
2022-08-09T02:51:28.637Z,0.00
2022-08-09T02:52:29.805Z,0.00
2022-08-09T02:53:30.135Z,0.00
2022-08-09T02:54:29.015Z,0.00
2022-08-09T02:55:46.642Z,0.00
2022-08-09T02:56:30.249Z,0.00
2022-08-09T02:57:29.391Z,0.00
2022-08-09T02:58:35.517Z,0.00
2022-08-09T02:59:36.274Z,0.00
2022-08-09T03:00:30.789Z,0.00
2022-08-09T03:01:58.675Z,0.00
2022-08-09T03:02:31.368Z,0.00
2022-08-09T03:04:12.612Z,0.00
2022-08-09T03:04:31.461Z,0.00
2022-08-09T03:05:34.187Z,0.00
2022-08-09T03:06:30.488Z,0.00
2022-08-09T03:07:30.601Z,0.00
2022-08-09T03:08:30.741Z,0.00
2022-08-09T03:09:33.535Z,0.00
2022-08-09T03:10:31.054Z,0.00
2022-08-09T03:12:05.874Z,0.00
2022-08-09T03:12:32.351Z,0.00
2022-08-09T03:13:43.400Z,0.00
2022-08-09T03:14:32.478Z,0.00
2022-08-09T03:16:04.562Z,0.00
2022-08-09T03:16:32.732Z,0.00
2022-08-09T03:17:31.862Z,0.00
2022-08-09T03:18:32.018Z,0.00
2022-08-09T03:19:58.790Z,0.00
2022-08-09T03:20:33.293Z,0.00
2022-08-09T03:21:39.473Z,0.00
2022-08-09T03:22:33.652Z,0.00
2022-08-09T03:23:33.654Z,0.00
2022-08-09T03:24:51.896Z,0.00
2022-08-09T03:25:58.200Z,0.00
2022-08-09T03:26:34.000Z,0.00
2022-08-09T03:27:44.619Z,0.00
2022-08-09T03:28:34.229Z,0.00
2022-08-09T03:29:35.585Z,0.00
2022-08-09T03:30:36.757Z,0.00
2022-08-09T03:31:33.620Z,0.00
2022-08-09T03:32:36.937Z,0.00
2022-08-09T03:33:53.519Z,0.00
2022-08-09T03:34:35.147Z,4.00
2022-08-09T03:36:11.522Z,4.00
2022-08-09T03:36:35.478Z,4.00
2022-08-09T03:37:55.605Z,0.00
2022-08-09T03:38:35.546Z,0.00
2022-08-09T03:39:38.066Z,0.00
2022-08-09T03:40:34.788Z,4.00
2022-08-09T03:41:44.755Z,4.00
2022-08-09T03:42:35.987Z,4.00
2022-08-09T03:43:36.465Z,4.00
2022-08-09T03:44:35.265Z,4.00
2022-08-09T03:46:05.422Z,4.00
2022-08-09T03:46:36.789Z,4.00
2022-08-09T03:47:39.817Z,8.00
2022-08-09T03:48:36.129Z,8.00
2022-08-09T03:49:36.033Z,8.00
2022-08-09T03:50:36.284Z,8.00
2022-08-09T03:51:56.443Z,12.00
2022-08-09T03:52:37.210Z,16.00
2022-08-09T03:53:37.090Z,16.00
2022-08-09T03:54:38.459Z,16.00
2022-08-09T03:55:40.939Z,20.00
2022-08-09T03:56:37.825Z,20.00
2022-08-09T03:57:44.782Z,28.00
2022-08-09T03:58:37.906Z,28.00
2022-08-09T03:59:52.885Z,36.00
2022-08-09T04:00:38.234Z,40.00
2022-08-09T04:01:37.289Z,44.00
2022-08-09T04:02:37.549Z,52.00
2022-08-09T04:03:46.112Z,56.00
2022-08-09T04:04:39.067Z,64.00
2022-08-09T04:05:40.536Z,72.00
2022-08-09T04:06:37.904Z,80.00
2022-08-09T04:07:52.537Z,84.00
2022-08-09T04:08:40.122Z,100.00
2022-08-09T04:09:41.750Z,108.00
2022-08-09T04:10:39.425Z,116.00
2022-08-09T04:11:38.574Z,132.00
2022-08-09T04:12:38.661Z,140.00
2022-08-09T04:14:37.179Z,156.00
2022-08-09T04:14:53.861Z,168.00
2022-08-09T04:16:17.269Z,184.00
2022-08-09T04:16:40.199Z,196.00
2022-08-09T04:17:39.521Z,212.00
2022-08-09T04:18:39.464Z,232.00
2022-08-09T04:19:50.768Z,248.00
2022-08-09T04:20:40.651Z,268.00
2022-08-09T04:21:40.224Z,280.00
2022-08-09T04:22:41.102Z,296.00
2022-08-09T04:23:40.110Z,324.00
2022-08-09T04:24:41.201Z,352.00
2022-08-09T04:25:40.271Z,364.00
2022-08-09T04:26:40.434Z,392.00
2022-08-09T04:27:40.557Z,408.00
2022-08-09T04:28:42.315Z,436.00
2022-08-09T04:29:49.517Z,464.00
2022-08-09T04:30:44.855Z,476.00
2022-08-09T04:31:47.250Z,516.00
2022-08-09T04:32:46.645Z,532.00
2022-08-09T04:33:53.082Z,556.00
2022-08-09T04:34:47.705Z,584.00
2022-08-09T04:35:42.532Z,628.00
2022-08-09T04:36:50.226Z,604.00
2022-08-09T04:37:46.231Z,668.00
2022-08-09T04:38:41.868Z,692.00
2022-08-09T04:39:42.151Z,676.00
2022-08-09T04:40:43.154Z,732.00
2022-08-09T04:41:43.733Z,776.00
2022-08-09T04:42:42.434Z,752.00
2022-08-09T04:43:46.541Z,812.00
2022-08-09T04:44:49.332Z,832.00
2022-08-09T04:45:53.968Z,880.00
2022-08-09T04:46:58.734Z,876.00
2022-08-09T04:47:59.189Z,876.00
2022-08-09T04:48:50.505Z,928.00
2022-08-09T04:49:55.020Z,1008.00
2022-08-09T04:50:44.503Z,1016.00
2022-08-09T04:51:43.521Z,968.00
2022-08-09T04:52:43.661Z,988.00
2022-08-09T04:53:43.757Z,1068.00
2022-08-09T04:54:43.935Z,1096.00
2022-08-09T04:55:58.857Z,1100.00
2022-08-09T04:56:45.188Z,1136.00
2022-08-09T04:57:54.346Z,1212.00
2022-08-09T04:58:45.413Z,1172.00
2022-08-09T04:59:44.546Z,1172.00
2022-08-09T05:00:45.700Z,1188.00
2022-08-09T05:01:44.789Z,1280.00
2022-08-09T05:02:48.759Z,1288.00
2022-08-09T05:03:46.109Z,1296.00
2022-08-09T05:04:45.122Z,1376.00
2022-08-09T05:05:51.988Z,1332.00
2022-08-09T05:06:46.461Z,1352.00
2022-08-09T05:07:46.429Z,1432.00
2022-08-09T05:08:48.044Z,1436.00
2022-08-09T05:09:49.906Z,1464.00
2022-08-09T05:10:45.830Z,1512.00
2022-08-09T05:11:45.948Z,1440.00
2022-08-09T05:12:46.150Z,1536.00
2022-08-09T05:13:46.198Z,1576.00
2022-08-09T05:14:46.320Z,1568.00
2022-08-09T05:15:47.967Z,1660.00
2022-08-09T05:16:58.919Z,1676.00
2022-08-09T05:18:42.604Z,1636.00
2022-08-09T05:18:58.309Z,1756.00
2022-08-09T05:19:47.888Z,1788.00
2022-08-09T05:20:48.019Z,1816.00
2022-08-09T05:21:55.739Z,1740.00
2022-08-09T05:23:55.492Z,1664.00
2022-08-09T05:24:00.973Z,1704.00
2022-08-09T05:24:48.492Z,1800.00
2022-08-09T05:25:50.875Z,1884.00
2022-08-09T05:26:47.923Z,1960.00
2022-08-09T05:27:48.173Z,2052.00
2022-08-09T05:28:47.957Z,2008.00
2022-08-09T05:29:48.096Z,1960.00
2022-08-09T05:30:48.267Z,1984.00
2022-08-09T05:31:56.443Z,2028.00
2022-08-09T05:32:50.770Z,2044.00
2022-08-09T05:33:48.595Z,2056.00
2022-08-09T05:34:48.732Z,2056.00
2022-08-09T05:35:50.798Z,2164.00
2022-08-09T05:36:49.113Z,2132.00
2022-08-09T05:37:50.302Z,2112.00
2022-08-09T05:38:49.186Z,2176.00
2022-08-09T05:39:49.324Z,2196.00
2022-08-09T05:40:50.570Z,2220.00
2022-08-09T05:41:49.584Z,2232.00
2022-08-09T05:42:49.625Z,2276.00
2022-08-09T05:43:49.775Z,2304.00
2022-08-09T05:44:50.932Z,2280.00
2022-08-09T05:45:55.825Z,2324.00
2022-08-09T05:46:51.166Z,2332.00
2022-08-09T05:47:52.503Z,2428.00
2022-08-09T05:48:58.857Z,2504.00
2022-08-09T05:50:25.685Z,2636.00
2022-08-09T05:51:12.014Z,2672.00
2022-08-09T05:51:51.753Z,2748.00
2022-08-09T05:52:53.409Z,2760.00
2022-08-09T05:53:56.665Z,2652.00
2022-08-09T05:54:52.173Z,2488.00
2022-08-09T05:55:51.281Z,2424.00
2022-08-09T05:56:54.662Z,2520.00
2022-08-09T05:57:56.420Z,2692.00
2022-08-09T05:58:56.132Z,2628.00
2022-08-09T05:59:52.800Z,2724.00
2022-08-09T06:00:51.940Z,2756.00
2022-08-09T06:01:52.062Z,2856.00
2022-08-09T06:02:54.071Z,2844.00
2022-08-09T06:03:58.538Z,2844.00
2022-08-09T06:04:53.400Z,2820.00
2022-08-09T06:06:04.739Z,2936.00
2022-08-09T06:06:53.619Z,3012.00
2022-08-09T06:08:05.348Z,3076.00
2022-08-09T06:08:53.969Z,3164.00
2022-08-09T06:09:55.030Z,3336.00
2022-08-09T06:10:54.130Z,3344.00
2022-08-09T06:11:57.356Z,3224.00
2022-08-09T06:13:02.784Z,3372.00
2022-08-09T06:13:54.568Z,3680.00
2022-08-09T06:14:53.661Z,3812.00
2022-08-09T06:15:53.781Z,4104.00
2022-08-09T06:16:53.918Z,4156.00
2022-08-09T06:17:54.029Z,4344.00
2022-08-09T06:18:54.308Z,4296.00
2022-08-09T06:19:54.247Z,4512.00
2022-08-09T06:20:57.325Z,4460.00
2022-08-09T06:21:58.412Z,4464.00
2022-08-09T06:22:54.601Z,4812.00
2022-08-09T06:24:01.161Z,4768.00
2022-08-09T06:24:56.017Z,4948.00
2022-08-09T06:26:00.208Z,4956.00
2022-08-09T06:26:55.125Z,5380.00
2022-08-09T06:27:55.266Z,5276.00
2022-08-09T06:29:00.944Z,5100.00
2022-08-09T06:30:04.483Z,4940.00
2022-08-09T06:30:56.614Z,4828.00
2022-08-09T06:32:09.056Z,4768.00
2022-08-09T06:33:00.365Z,4844.00
2022-08-09T06:33:57.188Z,4728.00
2022-08-09T06:34:56.048Z,4792.00
2022-08-09T06:35:58.252Z,5328.00
2022-08-09T06:36:57.224Z,5276.00
2022-08-09T06:38:05.869Z,5244.00
2022-08-09T06:38:57.701Z,5104.00
2022-08-09T06:39:59.730Z,5468.00
2022-08-09T06:40:56.825Z,5152.00
2022-08-09T06:42:08.868Z,5492.00
2022-08-09T06:42:58.049Z,5656.00
2022-08-09T06:43:57.223Z,5548.00
2022-08-09T06:44:57.549Z,5628.00
2022-08-09T06:46:06.337Z,5824.00
2022-08-09T06:46:58.541Z,5948.00
2022-08-09T06:47:58.002Z,6212.00
2022-08-09T06:49:00.192Z,6256.00
2022-08-09T06:50:13.449Z,6612.00
2022-08-09T06:50:59.128Z,6808.00
2022-08-09T06:51:58.153Z,6804.00
2022-08-09T06:52:58.294Z,7208.00
2022-08-09T06:54:01.024Z,6192.00
2022-08-09T06:54:58.608Z,6372.00
2022-08-09T06:55:58.636Z,6732.00
2022-08-09T06:56:58.746Z,7280.00
2022-08-09T06:58:01.524Z,7240.00
2022-08-09T07:00:50.759Z,7852.00
2022-08-09T07:00:52.111Z,8080.00
2022-08-09T07:01:00.490Z,7492.00
2022-08-09T07:02:04.555Z,7948.00
2022-08-09T07:03:00.473Z,7968.00
2022-08-09T07:04:03.695Z,8604.00
2022-08-09T07:04:59.829Z,8772.00
2022-08-09T07:06:03.625Z,8208.00
2022-08-09T07:07:01.020Z,8104.00
2022-08-09T07:08:01.930Z,7900.00
2022-08-09T07:09:00.262Z,8140.00
2022-08-09T07:10:17.917Z,8048.00
2022-08-09T07:11:01.622Z,7960.00
2022-08-09T07:12:00.713Z,8116.00
2022-08-09T07:13:18.717Z,7864.00
2022-08-09T07:14:05.516Z,8152.00
2022-08-09T07:15:53.121Z,8172.00
2022-08-09T07:16:41.285Z,8336.00
2022-08-09T07:17:02.362Z,8172.00
2022-08-09T07:18:03.097Z,8164.00
2022-08-09T07:19:01.483Z,8412.00
2022-08-09T07:20:01.652Z,8536.00
2022-08-09T07:21:01.863Z,8408.00
2022-08-09T07:22:02.036Z,8456.00
2022-08-09T07:23:02.020Z,8628.00
2022-08-09T07:24:03.144Z,8656.00
2022-08-09T07:25:02.261Z,8800.00
2022-08-09T07:26:02.986Z,8936.00
2022-08-09T07:27:02.581Z,9020.00
2022-08-09T07:28:04.240Z,9216.00
2022-08-09T07:29:12.203Z,9464.00
2022-08-09T07:30:03.939Z,9812.00
2022-08-09T07:31:03.051Z,10044.00
2022-08-09T07:32:03.164Z,10392.00
2022-08-09T07:33:10.358Z,10396.00
2022-08-09T07:34:04.583Z,10744.00
2022-08-09T07:35:08.218Z,10904.00
2022-08-09T07:36:04.709Z,11032.00
2022-08-09T07:37:03.833Z,11208.00
2022-08-09T07:38:03.952Z,11224.00
2022-08-09T07:39:04.092Z,11608.00
2022-08-09T07:40:05.333Z,12368.00
2022-08-09T07:41:13.154Z,13168.00
2022-08-09T07:42:05.441Z,13728.00
2022-08-09T07:43:14.832Z,16736.00
2022-08-09T07:44:05.690Z,17440.00
2022-08-09T07:45:14.951Z,22848.00
2022-08-09T07:46:05.983Z,20288.00
2022-08-09T07:47:05.120Z,20352.00
2022-08-09T07:48:05.441Z,22976.00
2022-08-09T07:49:05.299Z,25088.00
2022-08-09T07:50:08.571Z,26976.00
2022-08-09T07:52:02.701Z,33312.00
2022-08-09T07:52:17.024Z,35008.00
2022-08-09T07:53:07.050Z,40192.00
2022-08-09T07:54:07.376Z,47456.00
2022-08-09T07:55:09.113Z,60800.00
2022-08-09T07:56:06.744Z,71328.00
2022-08-09T07:57:11.747Z,61312.00
2022-08-09T07:58:13.201Z,45280.00
2022-08-09T07:59:15.784Z,33952.00
2022-08-09T08:00:08.954Z,28064.00
2022-08-09T08:01:11.086Z,28256.00
2022-08-09T08:02:07.343Z,25248.00
2022-08-09T08:03:08.419Z,21824.00
2022-08-09T08:04:10.573Z,22496.00
2022-08-09T08:05:18.884Z,22912.00
2022-08-09T08:06:08.498Z,22112.00
2022-08-09T08:07:09.302Z,18976.00
2022-08-09T08:09:01.720Z,19424.00
2022-08-09T08:09:34.417Z,19776.00
2022-08-09T08:10:10.757Z,20224.00
2022-08-09T08:12:09.917Z,19744.00
2022-08-09T08:12:27.440Z,19040.00
2022-08-09T08:13:10.278Z,20416.00
2022-08-09T08:14:08.890Z,20608.00
2022-08-09T08:15:08.593Z,19328.00
2022-08-09T08:16:09.331Z,18656.00
2022-08-09T08:17:12.099Z,19488.00
2022-08-09T08:18:10.088Z,20224.00
2022-08-09T08:19:09.063Z,19808.00
2022-08-09T08:20:12.884Z,19424.00
2022-08-09T08:21:09.270Z,19456.00
2022-08-09T08:22:09.406Z,19648.00
2022-08-09T08:23:16.703Z,20992.00
2022-08-09T08:24:11.518Z,23360.00
2022-08-09T08:25:13.516Z,22496.00
2022-08-09T08:26:11.509Z,22880.00
2022-08-09T08:27:16.491Z,23264.00
2022-08-09T08:28:11.106Z,23392.00
2022-08-09T08:29:10.196Z,26048.00
2022-08-09T08:30:11.042Z,26528.00
2022-08-09T08:31:14.867Z,26016.00
2022-08-09T08:32:12.399Z,29088.00
2022-08-09T08:33:11.912Z,30368.00
2022-08-09T08:34:11.816Z,34848.00
2022-08-09T08:35:11.025Z,35392.00
2022-08-09T08:36:12.344Z,37920.00
2022-08-09T08:37:15.645Z,38240.00
2022-08-09T08:38:11.896Z,38464.00
2022-08-09T08:39:11.500Z,37760.00
2022-08-09T08:40:11.578Z,38048.00
2022-08-09T08:41:11.767Z,40352.00
2022-08-09T08:42:11.961Z,42592.00
2022-08-09T08:43:13.738Z,46304.00
2022-08-09T08:44:13.713Z,44032.00
2022-08-09T08:45:13.832Z,42208.00
2022-08-09T08:46:33.654Z,41920.00
2022-08-09T08:47:13.556Z,43584.00
2022-08-09T08:48:19.348Z,43520.00
2022-08-09T08:49:19.162Z,41600.00
2022-08-09T08:50:13.815Z,44832.00
2022-08-09T08:51:12.954Z,44352.00
2022-08-09T08:52:24.409Z,44800.00
2022-08-09T08:53:16.118Z,45056.00
2022-08-09T08:54:20.522Z,46976.00
2022-08-09T08:55:15.274Z,47936.00
2022-08-09T08:56:24.944Z,46048.00
2022-08-09T08:57:14.663Z,47424.00
2022-08-09T08:58:13.943Z,47712.00
2022-08-09T08:59:19.088Z,47872.00
2022-08-09T09:00:20.975Z,48672.00
2022-08-09T09:01:20.784Z,50016.00
2022-08-09T09:02:30.664Z,50848.00
2022-08-09T09:03:20.813Z,51136.00
2022-08-09T09:04:15.573Z,53952.00
2022-08-09T09:05:16.522Z,54720.00
2022-08-09T09:06:21.013Z,53152.00
2022-08-09T09:07:14.955Z,54944.00
2022-08-09T09:08:31.124Z,57248.00
2022-08-09T09:09:20.985Z,56960.00
2022-08-09T09:10:16.337Z,56800.00
2022-08-09T09:11:19.262Z,55904.00
2022-08-09T09:12:16.635Z,53888.00
2022-08-09T09:13:15.755Z,54400.00
2022-08-09T09:14:15.918Z,55712.00
2022-08-09T09:15:28.607Z,56160.00
2022-08-09T09:16:17.003Z,55136.00
2022-08-09T09:17:16.481Z,54496.00
2022-08-09T09:18:16.421Z,53536.00
2022-08-09T09:19:39.356Z,53088.00
2022-08-09T09:20:17.512Z,53664.00
2022-08-09T09:21:16.680Z,54016.00
2022-08-09T09:22:23.831Z,54592.00
2022-08-09T09:23:18.061Z,55232.00
2022-08-09T09:24:21.833Z,55040.00
2022-08-09T09:26:03.411Z,64000.00
2022-08-09T09:26:18.470Z,66272.00
2022-08-09T09:28:03.145Z,72576.00
2022-08-09T09:28:39.106Z,76704.00
2022-08-09T09:29:19.035Z,77440.00
2022-08-09T09:30:38.260Z,76064.00
2022-08-09T09:32:07.103Z,71168.00
2022-08-09T09:32:19.175Z,65056.00
2022-08-09T09:33:19.282Z,54880.00
2022-08-09T09:34:18.838Z,55072.00
2022-08-09T09:35:18.448Z,62688.00
2022-08-09T09:36:20.343Z,63488.00
2022-08-09T09:37:18.712Z,65984.00
2022-08-09T09:38:36.465Z,74752.00
2022-08-09T09:39:20.138Z,78080.00
2022-08-09T09:40:19.097Z,78688.00
2022-08-09T09:41:19.207Z,82848.00
2022-08-09T09:42:19.326Z,85440.00
2022-08-09T09:43:19.567Z,82208.00
2022-08-09T09:44:25.870Z,80928.00
2022-08-09T09:45:25.785Z,82432.00
2022-08-09T09:47:21.304Z,93120.00
2022-08-09T09:48:20.077Z,95616.00
2022-08-09T09:49:32.060Z,101248.00
2022-08-09T09:50:23.204Z,100928.00
2022-08-09T09:51:26.105Z,87136.00
2022-08-09T09:52:36.450Z,74944.00
2022-08-09T09:53:21.675Z,62496.00
2022-08-09T09:54:21.865Z,57344.00
2022-08-09T09:55:32.340Z,52000.00
2022-08-09T09:56:31.397Z,50016.00
2022-08-09T09:58:00.499Z,47968.00
2022-08-09T09:58:24.449Z,48736.00
2022-08-09T09:59:21.475Z,47232.00
2022-08-09T10:00:22.056Z,47072.00
2022-08-09T10:01:30.993Z,48352.00
2022-08-09T10:02:22.825Z,47424.00
2022-08-09T10:03:22.287Z,46752.00
2022-08-09T10:04:22.918Z,47168.00
2022-08-09T10:05:27.191Z,47296.00
2022-08-09T10:06:23.312Z,46336.00
2022-08-09T10:07:24.020Z,46144.00
2022-08-09T10:08:27.429Z,45824.00
2022-08-09T10:09:23.993Z,45984.00
2022-08-09T10:10:22.833Z,47200.00
2022-08-09T10:11:54.016Z,47008.00
2022-08-09T10:12:28.567Z,46944.00
2022-08-09T10:13:42.788Z,48288.00
2022-08-09T10:14:30.810Z,47584.00
2022-08-09T10:15:51.149Z,47168.00
2022-08-09T10:16:57.864Z,46976.00
2022-08-09T10:17:51.489Z,48384.00
2022-08-09T10:18:24.781Z,47712.00
2022-08-09T10:19:23.903Z,47872.00
2022-08-09T10:20:31.804Z,47840.00
2022-08-09T10:21:25.131Z,48736.00
2022-08-09T10:22:29.576Z,49184.00
2022-08-09T10:23:28.175Z,49120.00
2022-08-09T10:24:25.567Z,48928.00
2022-08-09T10:25:25.768Z,49504.00
2022-08-09T10:26:26.809Z,49184.00
2022-08-09T10:27:34.699Z,49184.00
2022-08-09T10:28:26.055Z,49216.00
2022-08-09T10:30:22.147Z,50816.00
2022-08-09T10:32:20.920Z,50240.00
2022-08-09T10:32:39.977Z,49952.00
2022-08-09T10:34:07.934Z,50432.00
2022-08-09T10:34:33.582Z,49600.00
2022-08-09T10:35:26.939Z,50752.00
2022-08-09T10:36:26.137Z,50400.00
2022-08-09T10:37:26.119Z,49632.00
2022-08-09T10:38:33.787Z,50624.00
2022-08-09T10:39:28.701Z,51104.00
2022-08-09T10:40:34.765Z,51328.00
2022-08-09T10:41:27.953Z,51744.00
2022-08-09T10:42:26.900Z,51776.00
2022-08-09T10:43:26.857Z,51328.00
2022-08-09T10:44:27.956Z,51168.00
2022-08-09T10:45:31.836Z,51968.00
2022-08-09T10:46:28.337Z,52320.00
2022-08-09T10:48:20.439Z,50336.00
2022-08-09T10:48:31.041Z,51520.00
2022-08-09T10:49:50.922Z,51552.00
2022-08-09T10:50:31.395Z,50848.00
2022-08-09T10:51:29.797Z,51904.00
2022-08-09T10:52:29.063Z,52416.00
2022-08-09T10:53:28.074Z,52064.00
2022-08-09T10:54:28.212Z,51744.00
2022-08-09T10:55:28.365Z,51968.00
2022-08-09T10:56:28.525Z,52288.00
2022-08-09T10:57:28.642Z,53152.00
2022-08-09T10:58:28.861Z,52448.00
2022-08-09T10:59:31.071Z,49888.00
2022-08-09T11:00:29.006Z,50848.00
2022-08-09T11:03:11.956Z,50528.00
2022-08-09T11:03:27.339Z,51264.00
2022-08-09T11:03:50.120Z,50848.00
2022-08-09T11:04:32.536Z,50272.00
2022-08-09T11:05:31.087Z,50144.00
2022-08-09T11:06:29.760Z,49632.00
2022-08-09T11:07:57.832Z,48864.00
2022-08-09T11:08:33.240Z,47680.00
2022-08-09T11:09:32.520Z,46848.00
2022-08-09T11:10:30.208Z,47104.00
2022-08-09T11:11:30.358Z,48192.00
2022-08-09T11:12:30.597Z,48032.00
2022-08-09T11:13:54.133Z,49024.00
2022-08-09T11:14:32.247Z,46016.00
2022-08-09T11:15:34.164Z,46176.00
2022-08-09T11:16:35.730Z,46464.00
2022-08-09T11:17:31.308Z,45600.00
2022-08-09T11:18:31.447Z,44800.00
2022-08-09T11:20:12.109Z,45056.00
2022-08-09T11:20:32.556Z,44896.00
2022-08-09T11:21:31.683Z,45600.00
2022-08-09T11:22:31.807Z,47680.00
2022-08-09T11:23:31.981Z,49568.00
2022-08-09T11:24:32.005Z,49664.00
2022-08-09T11:25:44.834Z,52640.00
2022-08-09T11:26:33.306Z,65024.00
2022-08-09T11:28:03.942Z,71584.00
2022-08-09T11:28:33.801Z,77632.00
2022-08-09T11:30:04.512Z,73248.00
2022-08-09T11:30:34.664Z,73216.00
2022-08-09T11:31:34.221Z,75968.00
2022-08-09T11:32:33.329Z,75648.00
2022-08-09T11:33:33.163Z,78016.00
2022-08-09T11:34:33.378Z,80128.00
2022-08-09T11:35:35.177Z,79200.00
2022-08-09T11:36:35.919Z,81760.00
2022-08-09T11:37:40.807Z,79136.00
2022-08-09T11:38:35.108Z,78752.00
2022-08-09T11:39:38.602Z,81280.00
2022-08-09T11:40:34.062Z,81952.00
2022-08-09T11:41:37.692Z,72928.00
2022-08-09T11:42:35.291Z,71872.00
2022-08-09T11:43:34.391Z,59040.00
2022-08-09T11:44:34.561Z,45600.00
2022-08-09T11:45:42.560Z,82048.00
2022-08-09T11:46:35.803Z,57184.00
2022-08-09T11:47:35.228Z,53760.00
2022-08-09T11:48:35.914Z,48928.00
2022-08-09T11:49:42.827Z,74496.00
2022-08-09T11:50:55.533Z,58016.00
2022-08-09T11:53:02.417Z,36000.00
2022-08-09T11:53:15.906Z,82048.00
2022-08-09T11:54:01.274Z,33696.00
2022-08-09T11:54:36.771Z,56032.00
2022-08-09T11:55:53.569Z,34944.00
2022-08-09T11:56:42.761Z,45696.00
2022-08-09T11:58:00.662Z,68928.00
2022-08-09T11:58:37.254Z,81664.00
2022-08-09T11:59:36.357Z,86176.00
2022-08-09T12:00:36.548Z,91296.00
2022-08-09T12:02:15.894Z,49632.00
2022-08-09T12:02:39.670Z,84992.00
2022-08-09T12:03:54.896Z,88864.00
2022-08-09T12:04:38.298Z,91424.00
2022-08-09T12:05:39.566Z,90048.00
2022-08-09T12:06:37.257Z,90432.00
2022-08-09T12:07:42.305Z,91328.00
2022-08-09T12:08:38.567Z,86592.00
2022-08-09T12:09:37.606Z,85056.00
2022-08-09T12:10:39.850Z,87840.00
2022-08-09T12:12:02.407Z,91648.00
2022-08-09T12:12:39.154Z,93248.00
2022-08-09T12:14:10.790Z,93184.00
2022-08-09T12:14:58.977Z,92000.00
2022-08-09T12:15:50.404Z,95520.00
2022-08-09T12:16:39.938Z,93280.00
2022-08-09T12:17:43.567Z,92096.00
2022-08-09T12:18:39.716Z,94752.00
2022-08-09T12:19:40.059Z,95328.00
2022-08-09T12:20:38.954Z,95808.00
2022-08-09T12:21:48.810Z,94656.00
2022-08-09T12:22:40.204Z,95008.00
2022-08-09T12:23:56.568Z,93280.00